METAR AND TAF INFORMATION

METAR FOR TFFR
ADDS - METARS form results

(1614 UTC 21 May 2022)
Data provider http://aviationweather.gov/metar/data/
 
METAR text: TFFR 211600Z AUTO 11010KT 070V150 9999 BKN037 BKN043 30/22 Q1019 NOSIG
Conditions at: TFFR (LE RAIZET , GP) observed 1600 UTC 21 May 2022
Temperature: 30.0°C (86°F)
Dewpoint: 22.0°C (72°F) [RH = 62%]
Pressure (altimeter): 30.09 inches Hg (1019.0 mb)
Winds: from the ESE (110 degrees) at 12 MPH (10 knots; 5.1 m/s)
Visibility: 6 or more miles (10+ km)
Ceiling: 3700 feet AGL
Clouds: broken clouds at 3700 feet AGL
broken clouds at 4300 feet AGL
Weather: no significant weather observed at this time

METAR text: TFFR 211530Z AUTO 15012KT 120V180 9999 BKN038 BKN045 30/21 Q1020 NOSIG
Conditions at: TFFR (LE RAIZET , GP) observed 1530 UTC 21 May 2022
Temperature: 30.0°C (86°F)
Dewpoint: 21.0°C (70°F) [RH = 59%]
Pressure (altimeter): 30.12 inches Hg (1020.0 mb)
Winds: from the SSE (150 degrees) at 14 MPH (12 knots; 6.2 m/s)
Visibility: 6 or more miles (10+ km)
Ceiling: 3800 feet AGL
Clouds: broken clouds at 3800 feet AGL
broken clouds at 4500 feet AGL
Weather: no significant weather observed at this time

Forecast for: TFFR (LE RAIZET , GP)
Text: TAF TFFR 211100Z 2112/2212 11010KT 9999 SCT045
Forecast period: 1200 UTC 21 May 2022 to 1200 UTC 22 May 2022
Forecast type: FROM: standard forecast or significant change
Winds: from the ESE (110 degrees) at 12 MPH (10 knots; 5.1 m/s)
Visibility: 6 or more miles (10+ km)
Ceiling: at least 12,000 feet AGL
Clouds: scattered clouds at 4500 feet AGL
Weather: no significant weather forecast for this period

 

AIRPORT MAP

 

RUNWAY INFORMATION

Runway 12 Runway length 11499 ft Runway width 148 ft
Runway elevation 5 ft Runway displaced threshold 1312 ft Runway heading 101
Runway 30 Runway length 11499 ft Runway width 148 ft
Runway elevation 32 ft Runway displaced threshold 820 ft Runway heading 281

 

AIRPORT FREQUENCIES

Type APP Name RAIZET APP Frequency 121.3 MHZ
Type ATIS Name ATIS Frequency 127.6 MHZ
Type GND Name GND Frequency 121.85 MHZ
Type TWR Name RAIZET TWR Frequency 118.4 MHZ

 

AIRPORT NEAR NAVIGATION AIDS

Type VOR-DME Name Pointe A Pitre Frequency 112900 KHZ
Type NDB Name Pointe A Pitre Frequency 385 KHZ